Time;durP1;ratioP1;P1;durP2;ratioP2;P2;SDS_P1;SDS_P2;PMS_P1;PMS_P2;Temp;Humidity;BMP_temperature;BMP_pressure;BME280_temperature;BME280_humidity;BME280_pressure;Samples;Min_cycle;Max_cycle;Signal;HPM_P1;HPM_P2
2023/06/02 00:01:01;;;;;;;12.57;7.78;;;14.30;99.90;;;;;;2113050;28;20035;-75
2023/06/02 00:02:02;;;;;;;14.48;7.85;;;14.20;99.90;;;;;;2112178;28;20638;-76
2023/06/02 00:03:03;;;;;;;12.75;8.00;;;14.20;99.90;;;;;;2124434;27;20043;-76
2023/06/02 00:04:04;;;;;;;13.70;8.60;;;14.20;99.90;;;;;;2124372;27;20122;-76
2023/06/02 00:05:05;;;;;;;12.85;7.90;;;14.20;99.90;;;;;;2111754;28;20028;-76
2023/06/02 00:06:09;;;;;;;11.55;7.82;;;14.20;99.90;;;;;;2119208;28;20031;-76
2023/06/02 00:07:09;;;;;;;11.57;8.52;;;14.20;99.90;;;;;;2109348;28;20035;-77
2023/06/02 00:08:11;;;;;;;12.82;8.07;;;14.20;99.90;;;;;;2107777;28;20024;-77
2023/06/02 00:09:12;;;;;;;12.80;7.80;;;14.20;99.90;;;;;;2119335;27;20023;-77
2023/06/02 00:10:12;;;;;;;11.55;7.28;;;14.20;99.90;;;;;;2111713;28;20032;-77
2023/06/02 00:11:13;;;;;;;15.32;7.55;;;14.20;99.90;;;;;;2119426;28;20027;-76
2023/06/02 00:12:13;;;;;;;14.10;8.20;;;14.20;99.90;;;;;;2121143;27;20026;-77
2023/06/02 00:13:14;;;;;;;14.93;8.02;;;14.10;99.90;;;;;;2120863;28;20079;-77
2023/06/02 00:14:15;;;;;;;12.77;8.15;;;14.10;99.90;;;;;;2113799;28;20050;-77
2023/06/02 00:15:16;;;;;;;13.48;8.13;;;14.10;99.90;;;;;;2094849;28;20028;-77
2023/06/02 00:16:17;;;;;;;14.40;7.65;;;14.10;99.90;;;;;;2111220;27;20020;-75
2023/06/02 00:17:19;;;;;;;13.10;8.23;;;14.10;99.90;;;;;;2112174;28;20020;-77
2023/06/02 00:18:22;;;;;;;12.07;7.90;;;14.10;99.90;;;;;;2119887;27;20031;-74
2023/06/02 00:19:23;;;;;;;14.07;8.55;;;14.10;99.90;;;;;;2119078;27;20039;-75
2023/06/02 00:20:26;;;;;;;16.13;7.85;;;14.10;99.90;;;;;;2126535;27;20098;-75
2023/06/02 00:21:27;;;;;;;14.68;7.80;;;14.10;99.90;;;;;;2111479;28;20433;-75
2023/06/02 00:22:29;;;;;;;12.45;7.85;;;14.10;99.90;;;;;;2115530;28;20082;-77
2023/06/02 00:23:29;;;;;;;12.00;7.38;;;14.10;99.90;;;;;;2128692;27;20023;-77
2023/06/02 00:24:30;;;;;;;13.15;8.50;;;14.10;99.90;;;;;;2121297;27;20035;-75
2023/06/02 00:25:31;;;;;;;13.70;8.10;;;14.10;99.90;;;;;;2120853;28;20126;-76
2023/06/02 00:26:31;;;;;;;12.70;8.52;;;14.00;99.90;;;;;;2119279;28;20015;-76
2023/06/02 00:27:32;;;;;;;11.20;7.85;;;14.00;99.90;;;;;;2110868;28;20028;-76
2023/06/02 00:28:32;;;;;;;12.00;7.90;;;14.00;99.90;;;;;;2120118;28;20092;-77
2023/06/02 00:29:33;;;;;;;12.80;7.65;;;14.00;99.90;;;;;;2103940;28;20024;-77
2023/06/02 00:30:34;;;;;;;18.67;8.27;;;14.00;99.90;;;;;;2106868;28;20051;-76
2023/06/02 00:31:35;;;;;;;12.68;8.23;;;14.00;99.90;;;;;;2111483;28;20031;-77
2023/06/02 00:32:35;;;;;;;14.00;8.00;;;14.00;99.90;;;;;;2110670;28;20106;-76
2023/06/02 00:33:36;;;;;;;11.60;7.90;;;13.90;99.90;;;;;;2103499;28;20849;-77
2023/06/02 00:34:36;;;;;;;12.45;7.95;;;13.90;99.90;;;;;;2110388;28;20036;-76
2023/06/02 00:35:37;;;;;;;16.58;7.55;;;13.90;99.90;;;;;;2102948;28;20038;-77
2023/06/02 00:36:37;;;;;;;16.63;8.43;;;13.90;99.90;;;;;;2119822;27;20024;-77
2023/06/02 00:37:38;;;;;;;12.55;7.55;;;13.90;99.90;;;;;;2130752;27;20026;-77
2023/06/02 00:38:41;;;;;;;13.63;8.20;;;13.90;99.90;;;;;;2113403;27;20544;-77
2023/06/02 00:39:41;;;;;;;12.65;7.90;;;13.90;99.90;;;;;;2118601;27;20754;-77
2023/06/02 00:40:42;;;;;;;17.75;8.55;;;13.90;99.90;;;;;;2122161;27;20026;-77
2023/06/02 00:41:44;;;;;;;14.45;8.02;;;13.90;99.90;;;;;;2128696;27;20406;-77
2023/06/02 00:42:45;;;;;;;14.98;8.20;;;13.90;99.90;;;;;;2122222;27;20031;-76
2023/06/02 00:43:46;;;;;;;14.30;8.50;;;13.90;99.90;;;;;;2116862;27;20028;-77
2023/06/02 00:44:46;;;;;;;14.70;7.88;;;13.90;99.90;;;;;;2111405;28;20054;-78
2023/06/02 00:45:47;;;;;;;12.90;8.15;;;13.90;99.90;;;;;;2120760;27;20628;-76
2023/06/02 00:46:47;;;;;;;12.40;8.10;;;13.80;99.90;;;;;;2121551;27;20078;-77
2023/06/02 00:47:48;;;;;;;14.90;8.20;;;13.80;99.90;;;;;;2104982;28;20036;-77
2023/06/02 00:48:49;;;;;;;13.10;7.45;;;13.80;99.90;;;;;;2113196;28;20031;-77
2023/06/02 00:49:50;;;;;;;13.80;7.70;;;13.80;99.90;;;;;;2113620;28;20035;-76
2023/06/02 00:50:51;;;;;;;13.48;8.32;;;13.80;99.90;;;;;;2114483;27;20526;-77
2023/06/02 00:51:54;;;;;;;13.50;7.65;;;13.70;99.90;;;;;;2120808;27;20035;-75
2023/06/02 00:52:57;;;;;;;14.23;8.60;;;13.70;99.90;;;;;;2122230;27;20039;-76
2023/06/02 00:53:58;;;;;;;15.00;8.32;;;13.70;99.90;;;;;;2114424;27;20036;-77
2023/06/02 00:55:00;;;;;;;14.10;7.90;;;13.70;99.90;;;;;;2104564;28;20118;-77
2023/06/02 00:56:01;;;;;;;14.02;8.32;;;13.70;99.90;;;;;;2120283;27;20027;-76
2023/06/02 00:57:02;;;;;;;14.95;7.97;;;13.70;99.90;;;;;;2113327;27;20043;-76
2023/06/02 00:58:03;;;;;;;12.65;8.45;;;13.70;99.90;;;;;;2120617;27;20050;-76
2023/06/02 00:59:04;;;;;;;16.67;8.43;;;13.70;99.90;;;;;;2109447;27;20089;-76
2023/06/02 01:00:09;;;;;;;14.30;8.27;;;13.60;99.90;;;;;;2105487;28;20035;-75
2023/06/02 01:01:12;;;;;;;14.55;8.48;;;13.60;99.90;;;;;;2105566;28;20182;-77
2023/06/02 01:02:13;;;;;;;13.93;7.95;;;13.60;99.90;;;;;;2120120;27;20035;-74
2023/06/02 01:03:14;;;;;;;16.48;8.73;;;13.50;99.90;;;;;;2120676;27;20035;-75
2023/06/02 01:04:16;;;;;;;16.35;8.30;;;13.60;99.90;;;;;;2107794;27;20095;-75
2023/06/02 01:05:19;;;;;;;19.27;8.63;;;13.50;99.90;;;;;;2114005;27;20030;-76
2023/06/02 01:06:31;;;;;;;15.60;8.38;;;13.50;99.90;;;;;;2121080;27;20023;-75
2023/06/02 01:07:33;;;;;;;16.70;8.13;;;13.50;99.90;;;;;;2110817;28;20380;-75
2023/06/02 01:08:37;;;;;;;13.70;7.82;;;13.50;99.90;;;;;;2118775;27;20039;-76
2023/06/02 01:09:38;;;;;;;15.10;8.20;;;13.50;99.90;;;;;;2104154;28;20032;-75
2023/06/02 01:10:40;;;;;;;15.23;8.85;;;13.50;99.90;;;;;;2117188;27;20034;-75
2023/06/02 01:11:41;;;;;;;13.00;8.32;;;13.50;99.90;;;;;;2111362;28;20320;-74
2023/06/02 01:12:43;;;;;;;15.60;8.57;;;13.40;99.90;;;;;;2112182;28;20203;-76
2023/06/02 01:13:45;;;;;;;14.23;8.25;;;13.40;99.90;;;;;;2115807;27;20031;-76
2023/06/02 01:14:47;;;;;;;13.38;8.23;;;13.40;99.90;;;;;;2118030;27;20019;-76
2023/06/02 01:15:47;;;;;;;13.82;8.50;;;13.50;99.90;;;;;;2118212;27;20231;-76
2023/06/02 01:16:51;;;;;;;14.30;8.23;;;13.40;99.90;;;;;;2113816;27;20031;-75
2023/06/02 01:17:53;;;;;;;15.10;8.82;;;13.40;99.90;;;;;;2102826;28;20095;-77
2023/06/02 01:18:53;;;;;;;14.15;8.23;;;13.40;99.90;;;;;;2103588;28;20824;-77
2023/06/02 01:19:56;;;;;;;14.90;8.20;;;13.40;99.90;;;;;;2112349;27;20020;-76
2023/06/02 01:20:58;;;;;;;12.25;7.47;;;13.40;99.90;;;;;;2118646;27;20053;-78
2023/06/02 01:22:03;;;;;;;14.20;7.90;;;13.30;99.90;;;;;;2115928;27;20016;-75
2023/06/02 01:23:21;;;;;;;17.05;8.68;;;13.40;99.90;;;;;;2112369;28;20030;-76
2023/06/02 01:24:36;;;;;;;14.15;8.40;;;13.40;99.90;;;;;;2101087;28;20678;-77
2023/06/02 01:25:36;;;;;;;15.15;8.68;;;13.30;99.90;;;;;;2105260;28;20028;-75
2023/06/02 01:26:37;;;;;;;15.05;8.25;;;13.30;99.90;;;;;;2104401;28;20787;-76
2023/06/02 01:27:37;;;;;;;13.15;8.50;;;13.30;99.90;;;;;;2111880;28;20106;-76
2023/06/02 01:28:38;;;;;;;15.30;8.70;;;13.30;99.90;;;;;;2112644;28;20023;-76
2023/06/02 01:29:40;;;;;;;14.07;8.23;;;13.30;99.90;;;;;;2104801;28;20028;-75
2023/06/02 01:30:41;;;;;;;16.45;8.65;;;13.30;99.90;;;;;;2102197;28;20059;-75
2023/06/02 01:31:52;;;;;;;16.98;9.07;;;13.30;99.90;;;;;;2109913;28;20106;-75
2023/06/02 01:32:55;;;;;;;14.73;8.65;;;13.30;99.90;;;;;;2113955;27;20145;-75
2023/06/02 01:34:01;;;;;;;15.95;8.77;;;13.20;99.90;;;;;;2129899;27;20072;-75
2023/06/02 01:35:10;;;;;;;13.80;8.25;;;13.20;99.90;;;;;;2104318;28;20054;-76
2023/06/02 01:36:12;;;;;;;12.90;8.48;;;13.20;99.90;;;;;;2104939;27;20028;-75
2023/06/02 01:37:13;;;;;;;16.08;8.25;;;13.10;99.90;;;;;;2119975;27;20510;-75
2023/06/02 01:38:17;;;;;;;13.07;8.40;;;13.10;99.90;;;;;;2112852;27;20023;-75
2023/06/02 01:39:19;;;;;;;14.82;8.45;;;13.10;99.90;;;;;;2120716;27;20240;-76
2023/06/02 01:40:21;;;;;;;18.58;8.82;;;13.10;99.90;;;;;;2112639;27;20529;-76
2023/06/02 01:41:27;;;;;;;15.23;8.80;;;13.10;99.90;;;;;;2094993;28;20443;-76
2023/06/02 01:42:28;;;;;;;12.73;8.55;;;13.10;99.90;;;;;;2112503;28;20038;-75
2023/06/02 01:43:32;;;;;;;13.65;8.48;;;13.10;99.90;;;;;;2113603;27;20027;-75
2023/06/02 01:44:34;;;;;;;17.27;8.43;;;13.10;99.90;;;;;;2112357;27;20510;-76
2023/06/02 01:45:36;;;;;;;15.07;8.43;;;13.10;99.90;;;;;;2113097;27;20430;-76
2023/06/02 01:46:39;;;;;;;13.60;8.30;;;13.00;99.90;;;;;;2124755;27;20446;-76
2023/06/02 01:47:40;;;;;;;17.42;8.80;;;13.00;99.90;;;;;;2129708;27;20027;-75
2023/06/02 01:48:40;;;;;;;14.50;8.82;;;13.00;99.90;;;;;;2112165;28;20080;-75
2023/06/02 01:49:41;;;;;;;15.05;8.40;;;13.00;99.90;;;;;;2111768;28;20137;-75
2023/06/02 01:50:43;;;;;;;14.85;8.40;;;13.00;99.90;;;;;;2104592;28;20123;-76
2023/06/02 01:51:44;;;;;;;18.15;9.00;;;13.00;99.90;;;;;;2114336;27;20078;-75
2023/06/02 01:52:45;;;;;;;14.57;8.43;;;13.00;99.90;;;;;;2120909;27;20035;-76
2023/06/02 01:53:46;;;;;;;16.05;8.50;;;13.00;99.90;;;;;;2112905;27;20031;-76
2023/06/02 01:54:48;;;;;;;14.38;8.80;;;12.90;99.90;;;;;;2112359;28;20155;-75
2023/06/02 01:55:49;;;;;;;17.63;8.85;;;12.90;99.90;;;;;;2125329;27;20042;-76
2023/06/02 01:56:50;;;;;;;15.25;8.40;;;12.90;99.90;;;;;;2113385;27;20032;-76
2023/06/02 01:57:51;;;;;;;12.05;8.15;;;12.90;99.90;;;;;;2111672;28;20046;-75
2023/06/02 01:58:52;;;;;;;15.88;8.02;;;12.90;99.90;;;;;;2111655;28;20521;-75
2023/06/02 01:59:53;;;;;;;15.60;8.70;;;12.90;99.90;;;;;;2104165;28;20097;-76
2023/06/02 02:00:57;;;;;;;15.27;8.38;;;12.90;99.90;;;;;;2095509;28;20052;-74
2023/06/02 02:01:57;;;;;;;16.30;8.32;;;12.90;99.90;;;;;;2113238;27;20027;-74
2023/06/02 02:02:58;;;;;;;16.45;8.98;;;12.80;99.90;;;;;;2120099;27;20035;-76
2023/06/02 02:03:58;;;;;;;17.70;8.52;;;12.90;99.90;;;;;;2120759;27;20061;-76
2023/06/02 02:04:59;;;;;;;18.30;8.25;;;12.80;99.90;;;;;;2120105;27;20405;-76
2023/06/02 02:05:59;;;;;;;14.82;8.13;;;12.80;99.90;;;;;;2115174;27;20043;-76
2023/06/02 02:07:01;;;;;;;16.92;8.40;;;12.80;99.90;;;;;;2120970;27;20035;-75
2023/06/02 02:08:03;;;;;;;18.75;8.60;;;12.70;99.90;;;;;;2127159;27;20683;-75
2023/06/02 02:09:03;;;;;;;16.85;8.80;;;12.70;99.90;;;;;;2121650;27;20031;-75
2023/06/02 02:10:04;;;;;;;15.38;8.32;;;12.70;99.90;;;;;;2129359;27;20446;-74
2023/06/02 02:11:05;;;;;;;16.05;8.70;;;12.70;99.90;;;;;;2121963;27;20045;-76
2023/06/02 02:12:06;;;;;;;14.88;8.45;;;12.70;99.90;;;;;;2120508;27;20106;-76
2023/06/02 02:13:07;;;;;;;15.43;8.20;;;12.70;99.90;;;;;;2112035;28;20678;-75
2023/06/02 02:14:08;;;;;;;17.08;8.93;;;12.60;99.90;;;;;;2107511;28;20016;-76
2023/06/02 02:15:10;;;;;;;14.15;8.55;;;12.70;99.90;;;;;;2111869;27;20070;-76
2023/06/02 02:16:11;;;;;;;17.67;9.23;;;12.70;99.90;;;;;;2112401;28;20054;-75
2023/06/02 02:17:11;;;;;;;15.80;9.00;;;12.70;99.90;;;;;;2101797;28;20713;-75
2023/06/02 02:18:12;;;;;;;14.20;8.63;;;12.70;99.90;;;;;;2119289;27;20035;-75
2023/06/02 02:19:12;;;;;;;16.40;9.55;;;12.70;99.90;;;;;;2119914;27;20038;-76
2023/06/02 02:20:18;;;;;;;14.93;8.45;;;12.60;99.90;;;;;;2129946;27;20035;-75
2023/06/02 02:21:19;;;;;;;16.67;9.00;;;12.60;99.90;;;;;;2110129;28;20038;-75
2023/06/02 02:22:19;;;;;;;16.98;9.23;;;12.60;99.90;;;;;;2095453;28;20048;-75
2023/06/02 02:23:20;;;;;;;16.38;9.65;;;12.60;99.90;;;;;;2110903;28;20028;-76
2023/06/02 02:24:20;;;;;;;19.23;8.82;;;12.60;99.90;;;;;;2114124;27;20521;-75
2023/06/02 02:25:21;;;;;;;16.30;9.20;;;12.50;99.90;;;;;;2119725;27;20058;-76
2023/06/02 02:26:23;;;;;;;16.75;9.52;;;12.50;99.90;;;;;;2118105;27;20114;-76
2023/06/02 02:27:23;;;;;;;15.48;9.18;;;12.50;99.90;;;;;;2112254;28;20027;-77
2023/06/02 02:28:24;;;;;;;16.48;8.55;;;12.50;99.90;;;;;;2104127;28;20075;-75
2023/06/02 02:29:25;;;;;;;13.85;8.38;;;12.50;99.90;;;;;;2111326;28;20487;-77
2023/06/02 02:30:26;;;;;;;16.98;9.10;;;12.50;99.90;;;;;;2112457;27;20073;-75
2023/06/02 02:31:27;;;;;;;18.67;9.07;;;12.50;99.90;;;;;;2116565;27;20500;-75
2023/06/02 02:32:29;;;;;;;16.95;8.73;;;12.60;99.90;;;;;;2103741;28;20027;-75
2023/06/02 02:33:29;;;;;;;14.82;8.35;;;12.60;99.90;;;;;;2111755;27;20024;-75
2023/06/02 02:34:32;;;;;;;14.95;8.20;;;12.60;99.90;;;;;;2112034;28;20032;-75
2023/06/02 02:35:33;;;;;;;14.73;8.57;;;12.60;99.90;;;;;;2102510;28;20122;-74
2023/06/02 02:36:35;;;;;;;17.65;9.00;;;12.60;99.90;;;;;;2099133;28;20036;-76
2023/06/02 02:37:36;;;;;;;20.17;8.70;;;12.60;99.90;;;;;;2104063;28;20440;-76
2023/06/02 02:38:37;;;;;;;17.90;8.38;;;12.60;99.90;;;;;;2129221;27;20030;-76
2023/06/02 02:39:37;;;;;;;12.68;8.48;;;12.70;99.90;;;;;;2119959;27;20038;-76
2023/06/02 02:40:38;;;;;;;16.55;8.70;;;12.60;99.90;;;;;;2104316;28;20031;-75
2023/06/02 02:41:39;;;;;;;15.48;8.32;;;12.60;99.90;;;;;;2101622;28;20031;-76
2023/06/02 02:42:40;;;;;;;13.82;8.30;;;12.60;99.90;;;;;;2099023;28;20032;-76
2023/06/02 02:43:41;;;;;;;18.38;8.88;;;12.60;99.90;;;;;;2120090;27;20027;-76
2023/06/02 02:44:41;;;;;;;15.63;8.43;;;12.60;99.90;;;;;;2112687;27;20517;-76
2023/06/02 02:45:42;;;;;;;18.48;9.13;;;12.60;99.90;;;;;;2117058;27;20037;-75
2023/06/02 02:46:43;;;;;;;18.60;8.52;;;12.60;99.90;;;;;;2109703;28;20084;-75
2023/06/02 02:47:43;;;;;;;17.52;8.45;;;12.60;99.90;;;;;;2111239;28;20024;-76
2023/06/02 02:48:44;;;;;;;17.65;8.65;;;12.50;99.90;;;;;;2111976;28;20529;-76
2023/06/02 02:49:45;;;;;;;14.23;8.73;;;12.50;99.90;;;;;;2095611;28;20813;-75
2023/06/02 02:50:45;;;;;;;16.30;8.75;;;12.60;99.90;;;;;;2106718;28;20036;-77
2023/06/02 02:51:46;;;;;;;12.52;7.90;;;12.60;99.90;;;;;;2122749;27;20079;-76
2023/06/02 02:52:47;;;;;;;13.93;8.20;;;12.60;99.90;;;;;;2119547;27;20031;-76
2023/06/02 02:53:48;;;;;;;17.77;8.02;;;12.60;99.90;;;;;;2109791;28;20577;-76
2023/06/02 02:54:49;;;;;;;14.05;8.15;;;12.60;99.90;;;;;;2111126;28;20234;-75
2023/06/02 02:55:51;;;;;;;19.67;9.00;;;12.60;99.90;;;;;;2108174;28;20214;-77
2023/06/02 02:56:52;;;;;;;15.95;8.50;;;12.60;99.90;;;;;;2096161;28;20148;-75
2023/06/02 02:57:54;;;;;;;17.27;8.57;;;12.60;99.90;;;;;;2111439;28;20027;-75
2023/06/02 02:58:57;;;;;;;17.73;9.25;;;12.60;99.90;;;;;;2103738;28;20504;-76
2023/06/02 02:59:58;;;;;;;17.27;8.40;;;12.60;99.90;;;;;;2119899;27;20039;-76
2023/06/02 03:00:58;;;;;;;16.40;9.02;;;12.60;99.90;;;;;;2121449;27;20054;-77
2023/06/02 03:01:59;;;;;;;14.35;8.07;;;12.60;99.90;;;;;;2116121;27;20023;-77
2023/06/02 03:03:01;;;;;;;16.85;8.52;;;12.60;99.90;;;;;;2103476;28;20462;-75
2023/06/02 03:04:02;;;;;;;14.45;8.13;;;12.60;99.90;;;;;;2106617;28;20028;-75
2023/06/02 03:05:03;;;;;;;16.77;8.32;;;12.60;99.90;;;;;;2111155;28;20305;-76
2023/06/02 03:06:05;;;;;;;14.73;8.43;;;12.70;99.90;;;;;;2095516;28;20052;-75
2023/06/02 03:07:06;;;;;;;12.48;7.55;;;12.60;99.90;;;;;;2105557;28;20024;-76
2023/06/02 03:08:09;;;;;;;16.23;8.57;;;12.70;99.90;;;;;;2108772;28;20399;-76
2023/06/02 03:09:10;;;;;;;15.98;7.93;;;12.70;99.90;;;;;;2103369;28;20063;-75
2023/06/02 03:10:10;;;;;;;16.95;8.68;;;12.70;99.90;;;;;;2110617;28;20026;-76
2023/06/02 03:11:11;;;;;;;18.45;9.10;;;12.70;99.90;;;;;;2103829;28;20024;-75
2023/06/02 03:12:12;;;;;;;14.70;7.88;;;12.70;99.90;;;;;;2101779;28;20510;-75
2023/06/02 03:13:12;;;;;;;15.10;8.40;;;12.60;99.90;;;;;;2110945;28;20027;-76
2023/06/02 03:14:14;;;;;;;15.73;8.52;;;12.60;99.90;;;;;;2111987;28;20434;-77
2023/06/02 03:15:15;;;;;;;14.23;8.50;;;12.60;99.90;;;;;;2103942;28;20062;-77
2023/06/02 03:16:16;;;;;;;15.32;8.27;;;12.60;99.90;;;;;;2111146;28;20605;-76
2023/06/02 03:17:17;;;;;;;17.45;8.60;;;12.60;99.90;;;;;;2095004;28;20035;-75
2023/06/02 03:18:18;;;;;;;14.95;8.50;;;12.60;99.90;;;;;;2104392;28;20039;-77
2023/06/02 03:19:18;;;;;;;14.20;8.70;;;12.60;99.90;;;;;;2111008;28;20024;-76
2023/06/02 03:20:20;;;;;;;15.73;8.20;;;12.60;99.90;;;;;;2103866;28;20024;-76
2023/06/02 03:21:24;;;;;;;16.65;8.00;;;12.60;99.90;;;;;;2110543;28;20110;-75
2023/06/02 03:22:25;;;;;;;16.20;8.63;;;12.60;99.90;;;;;;2111899;28;20023;-75
2023/06/02 03:23:28;;;;;;;17.13;8.35;;;12.60;99.90;;;;;;2111145;28;20030;-76
2023/06/02 03:24:29;;;;;;;15.15;8.48;;;12.60;99.90;;;;;;2096287;28;20522;-76
2023/06/02 03:25:34;;;;;;;17.42;8.45;;;12.60;99.90;;;;;;2110781;28;20533;-76
2023/06/02 03:26:35;;;;;;;17.73;8.75;;;12.60;99.90;;;;;;2117930;27;20034;-76
2023/06/02 03:27:36;;;;;;;17.75;8.43;;;12.60;99.90;;;;;;2108646;28;20028;-76
2023/06/02 03:28:37;;;;;;;15.35;8.13;;;12.60;99.90;;;;;;2102948;28;20028;-76
2023/06/02 03:29:38;;;;;;;21.30;8.45;;;12.70;99.90;;;;;;2103552;28;20032;-76
2023/06/02 03:30:38;;;;;;;13.85;7.85;;;12.70;99.90;;;;;;2096628;28;20028;-76
2023/06/02 03:31:41;;;;;;;16.58;8.18;;;12.70;99.90;;;;;;2097505;28;20013;-76
2023/06/02 03:32:42;;;;;;;22.33;9.18;;;12.70;99.90;;;;;;2095327;28;20517;-75
2023/06/02 03:33:43;;;;;;;14.65;8.20;;;12.70;99.90;;;;;;2119538;27;20136;-75
2023/06/02 03:34:46;;;;;;;15.65;8.50;;;12.70;99.90;;;;;;2112021;28;20076;-75
2023/06/02 03:35:48;;;;;;;17.48;8.70;;;12.70;99.90;;;;;;2108296;28;20062;-75
2023/06/02 03:36:49;;;;;;;17.60;8.80;;;12.70;99.90;;;;;;2104494;28;20031;-75
2023/06/02 03:37:50;;;;;;;17.05;8.25;;;12.70;99.90;;;;;;2110180;28;20031;-76
2023/06/02 03:38:50;;;;;;;13.50;7.70;;;12.70;99.90;;;;;;2112204;28;20055;-77
2023/06/02 03:39:51;;;;;;;15.23;7.65;;;12.70;99.90;;;;;;2120899;28;20084;-77
2023/06/02 03:40:53;;;;;;;17.08;7.95;;;12.70;99.90;;;;;;2116037;28;20036;-76
2023/06/02 03:41:54;;;;;;;14.23;7.60;;;12.80;99.90;;;;;;2109178;28;20027;-76
2023/06/02 03:42:55;;;;;;;13.30;7.32;;;12.80;99.90;;;;;;2119635;28;20019;-77
2023/06/02 03:43:55;;;;;;;20.55;7.90;;;12.80;99.90;;;;;;2116364;28;20550;-77
2023/06/02 03:44:56;;;;;;;18.98;7.60;;;12.80;99.90;;;;;;2116316;28;20062;-78
2023/06/02 03:45:56;;;;;;;17.60;7.25;;;12.80;99.90;;;;;;2103315;28;20063;-78
2023/06/02 03:46:57;;;;;;;15.90;7.18;;;12.70;99.90;;;;;;2103537;28;20032;-78
2023/06/02 03:47:57;;;;;;;17.73;7.50;;;12.70;99.90;;;;;;2107035;28;20151;-78
2023/06/02 03:48:58;;;;;;;21.17;7.40;;;12.60;99.90;;;;;;2103300;28;20050;-77
2023/06/02 03:49:59;;;;;;;14.68;6.97;;;12.60;99.90;;;;;;2119498;28;20486;-75
2023/06/02 03:51:03;;;;;;;18.70;7.30;;;12.60;99.90;;;;;;2103670;28;20455;-76
2023/06/02 03:52:06;;;;;;;20.33;7.55;;;12.60;99.90;;;;;;2102574;28;20020;-77
2023/06/02 03:53:08;;;;;;;18.00;7.63;;;12.60;99.90;;;;;;2111289;28;20047;-76
2023/06/02 03:54:10;;;;;;;17.33;7.40;;;12.60;99.90;;;;;;2103422;28;20071;-76
2023/06/02 03:55:11;;;;;;;19.75;7.38;;;12.60;99.90;;;;;;2118709;28;20390;-76
2023/06/02 03:56:13;;;;;;;18.17;7.70;;;12.60;99.90;;;;;;2103645;28;20020;-76
2023/06/02 03:57:13;;;;;;;17.88;7.20;;;12.60;99.90;;;;;;2101396;28;20028;-69
2023/06/02 03:58:14;;;;;;;15.95;7.38;;;12.60;99.90;;;;;;2110670;28;20026;-75
2023/06/02 03:59:15;;;;;;;16.30;7.97;;;12.60;99.90;;;;;;2095324;28;20025;-70
2023/06/02 04:00:17;;;;;;;16.95;8.25;;;12.70;99.90;;;;;;2096501;28;20070;-70
2023/06/02 04:01:23;;;;;;;17.13;7.65;;;12.70;99.90;;;;;;2094955;28;20036;-70
2023/06/02 04:02:26;;;;;;;14.82;7.72;;;12.70;99.90;;;;;;2103398;28;20032;-70
2023/06/02 04:03:28;;;;;;;19.10;8.18;;;12.70;99.90;;;;;;2103595;28;20160;-69
2023/06/02 04:04:31;;;;;;;14.15;7.82;;;12.70;99.90;;;;;;2105276;28;20150;-70
2023/06/02 04:05:32;;;;;;;18.98;8.48;;;12.70;99.90;;;;;;2109273;28;20212;-69
2023/06/02 04:06:32;;;;;;;14.55;8.32;;;12.80;99.90;;;;;;2109196;28;20597;-71
2023/06/02 04:07:33;;;;;;;18.88;8.13;;;12.80;99.90;;;;;;2109235;28;20038;-69
2023/06/02 04:08:34;;;;;;;19.10;7.50;;;12.80;99.90;;;;;;2115367;28;20027;-69
2023/06/02 04:09:35;;;;;;;18.02;7.90;;;12.70;99.90;;;;;;2102423;28;20040;-69
2023/06/02 04:10:37;;;;;;;15.00;8.07;;;12.70;99.90;;;;;;2095440;28;20119;-69
2023/06/02 04:11:37;;;;;;;19.67;7.75;;;12.80;99.90;;;;;;2107073;28;20065;-69
2023/06/02 04:12:38;;;;;;;16.38;7.78;;;12.70;99.90;;;;;;2103974;28;20043;-70
2023/06/02 04:13:39;;;;;;;19.02;7.95;;;12.80;99.90;;;;;;2105051;28;20040;-70
2023/06/02 04:14:40;;;;;;;16.48;7.35;;;12.80;99.90;;;;;;2111661;28;20020;-69
2023/06/02 04:15:42;;;;;;;22.23;7.63;;;12.80;99.90;;;;;;2112537;28;20372;-70
2023/06/02 04:16:43;;;;;;;16.08;7.45;;;12.80;99.90;;;;;;2103409;28;20823;-69
2023/06/02 04:17:45;;;;;;;15.75;6.82;;;12.80;99.90;;;;;;2111159;28;20052;-70
2023/06/02 04:18:46;;;;;;;14.90;6.35;;;12.90;99.90;;;;;;2120971;27;20020;-70
2023/06/02 04:19:47;;;;;;;15.05;6.93;;;12.90;99.90;;;;;;2104917;28;20028;-71
2023/06/02 04:20:47;;;;;;;18.42;7.50;;;13.00;99.90;;;;;;2104033;28;20028;-70
2023/06/02 04:21:48;;;;;;;18.30;7.68;;;12.90;99.90;;;;;;2111110;28;20406;-70
2023/06/02 04:22:49;;;;;;;16.30;7.03;;;12.90;99.90;;;;;;2113420;28;20399;-70
2023/06/02 04:23:50;;;;;;;18.63;7.13;;;12.90;99.90;;;;;;2105003;28;20449;-71
2023/06/02 04:24:51;;;;;;;15.18;6.90;;;12.90;99.90;;;;;;2110519;28;20031;-71
2023/06/02 04:25:52;;;;;;;20.00;7.13;;;12.90;99.90;;;;;;2112315;28;20039;-71
2023/06/02 04:26:52;;;;;;;17.23;6.53;;;12.90;99.90;;;;;;2105986;28;20020;-71
2023/06/02 04:27:53;;;;;;;18.23;6.45;;;12.90;99.90;;;;;;2113122;28;20082;-69
2023/06/02 04:28:53;;;;;;;18.52;6.82;;;12.90;99.90;;;;;;2118701;27;20058;-70
2023/06/02 04:29:54;;;;;;;16.38;6.65;;;12.90;99.90;;;;;;2096026;28;20087;-69
2023/06/02 04:30:56;;;;;;;18.75;6.43;;;12.90;99.90;;;;;;2109258;28;20224;-70
2023/06/02 04:31:58;;;;;;;17.77;6.53;;;12.90;99.90;;;;;;2113258;27;20067;-70
2023/06/02 04:33:03;;;;;;;21.38;7.00;;;12.90;99.90;;;;;;2109293;28;20028;-70
2023/06/02 04:34:04;;;;;;;16.20;6.38;;;12.90;99.90;;;;;;2109437;28;20039;-71
2023/06/02 04:35:06;;;;;;;13.40;6.03;;;12.90;99.90;;;;;;2112640;28;20593;-71
2023/06/02 04:36:10;;;;;;;18.85;6.13;;;13.00;99.90;;;;;;2104693;28;20124;-70
2023/06/02 04:37:12;;;;;;;21.42;6.53;;;13.00;99.90;;;;;;2111379;27;20092;-70
2023/06/02 04:38:13;;;;;;;17.88;6.95;;;13.00;99.90;;;;;;2117126;27;20024;-70
2023/06/02 04:39:14;;;;;;;21.52;6.60;;;13.00;99.90;;;;;;2120875;27;20564;-71
2023/06/02 04:40:15;;;;;;;15.70;6.38;;;13.00;99.90;;;;;;2105122;28;20115;-71
2023/06/02 04:41:16;;;;;;;19.10;6.40;;;13.00;99.90;;;;;;2110569;28;20444;-70
2023/06/02 04:42:18;;;;;;;15.88;6.38;;;13.00;99.90;;;;;;2115513;27;20712;-70
2023/06/02 04:43:19;;;;;;;17.90;6.30;;;13.00;99.90;;;;;;2120834;27;20031;-70
2023/06/02 04:44:20;;;;;;;21.92;6.90;;;13.00;99.90;;;;;;2113388;27;20035;-71
2023/06/02 04:45:23;;;;;;;19.88;6.60;;;12.90;99.90;;;;;;2122117;27;20024;-71
2023/06/02 04:46:27;;;;;;;17.55;6.43;;;12.90;99.90;;;;;;2127009;27;20027;-71
2023/06/02 04:47:29;;;;;;;17.83;6.70;;;12.90;99.90;;;;;;2113064;28;20518;-71
2023/06/02 04:48:29;;;;;;;18.13;6.63;;;12.80;99.90;;;;;;2104276;28;20023;-71
2023/06/02 04:49:30;;;;;;;16.80;6.57;;;12.80;99.90;;;;;;2104491;28;20072;-70
2023/06/02 04:50:31;;;;;;;17.85;6.97;;;12.80;99.90;;;;;;2112022;28;20027;-71
2023/06/02 04:51:32;;;;;;;19.77;6.93;;;12.90;99.90;;;;;;2108446;28;20482;-71
2023/06/02 04:52:32;;;;;;;20.05;6.72;;;12.90;99.90;;;;;;2112726;28;20023;-70
2023/06/02 04:53:33;;;;;;;19.25;6.72;;;12.90;99.90;;;;;;2112189;28;20177;-71
2023/06/02 04:54:35;;;;;;;15.93;6.50;;;12.90;99.90;;;;;;2120822;27;20043;-71
2023/06/02 04:55:36;;;;;;;21.55;7.07;;;12.90;99.90;;;;;;2113198;27;20085;-70
2023/06/02 04:56:37;;;;;;;24.77;7.03;;;12.90;99.90;;;;;;2107363;28;20035;-70
2023/06/02 04:57:40;;;;;;;19.73;7.03;;;13.00;99.90;;;;;;2107606;28;20023;-71
2023/06/02 04:58:42;;;;;;;19.05;6.65;;;13.00;99.90;;;;;;2112376;28;20063;-71
2023/06/02 04:59:42;;;;;;;18.17;6.90;;;13.10;99.90;;;;;;2113172;27;20095;-70
2023/06/02 05:00:43;;;;;;;15.98;6.38;;;13.10;99.90;;;;;;2120632;27;20401;-70
2023/06/02 05:01:44;;;;;;;16.25;6.22;;;13.10;99.90;;;;;;2103025;28;20024;-71
2023/06/02 05:02:45;;;;;;;16.00;6.13;;;13.10;99.90;;;;;;2110614;28;20035;-70
2023/06/02 05:03:46;;;;;;;20.92;6.40;;;13.20;99.90;;;;;;2112202;28;20023;-69
2023/06/02 05:04:47;;;;;;;20.90;6.47;;;13.20;99.90;;;;;;2104895;28;20145;-70
2023/06/02 05:05:47;;;;;;;19.95;6.65;;;13.20;99.90;;;;;;2104413;28;20458;-70
2023/06/02 05:06:49;;;;;;;15.70;6.60;;;13.20;99.90;;;;;;2109713;28;20084;-70
2023/06/02 05:07:51;;;;;;;16.02;6.90;;;13.00;99.90;;;;;;2098761;28;20032;-71
2023/06/02 05:08:53;;;;;;;18.48;6.38;;;12.90;99.90;;;;;;2096609;28;20036;-70
2023/06/02 05:09:53;;;;;;;19.13;6.60;;;12.90;99.90;;;;;;2111930;28;20134;-71
2023/06/02 05:10:54;;;;;;;18.60;6.47;;;12.90;99.90;;;;;;2118582;27;20105;-71
2023/06/02 05:11:54;;;;;;;20.25;6.70;;;13.00;99.90;;;;;;2104783;28;20024;-71
2023/06/02 05:12:56;;;;;;;22.92;6.82;;;13.00;99.90;;;;;;2096029;28;20048;-71
2023/06/02 05:13:57;;;;;;;21.42;6.95;;;13.00;99.90;;;;;;2110323;28;20031;-71
2023/06/02 05:14:58;;;;;;;16.70;6.57;;;13.10;99.90;;;;;;2112147;28;20032;-71
2023/06/02 05:15:59;;;;;;;22.73;6.90;;;13.10;99.90;;;;;;2104708;28;20110;-71